sensor_id;sensor_type;location;lat;lon;timestamp;temperature;humidity
290;DHT22;13193;48.874;9.086;2022-10-30T00:02:15;12.30;1.00
290;DHT22;13193;48.874;9.086;2022-10-30T00:04:41;12.20;1.00
290;DHT22;13193;48.874;9.086;2022-10-30T00:07:07;12.30;1.00
290;DHT22;13193;48.874;9.086;2022-10-30T00:09:32;12.20;1.00
290;DHT22;13193;48.874;9.086;2022-10-30T00:11:58;12.30;1.00
290;DHT22;13193;48.874;9.086;2022-10-30T00:14:23;12.30;1.00
290;DHT22;13193;48.874;9.086;2022-10-30T00:16:49;12.20;1.00
290;DHT22;13193;48.874;9.086;2022-10-30T00:19:15;12.30;1.00
290;DHT22;13193;48.874;9.086;2022-10-30T00:21:40;12.30;1.00
290;DHT22;13193;48.874;9.086;2022-10-30T00:24:06;12.30;1.00
290;DHT22;13193;48.874;9.086;2022-10-30T00:26:32;12.30;1.00
290;DHT22;13193;48.874;9.086;2022-10-30T00:28:58;12.30;1.00
290;DHT22;13193;48.874;9.086;2022-10-30T00:31:23;12.30;1.00
290;DHT22;13193;48.874;9.086;2022-10-30T00:33:53;12.30;1.00
290;DHT22;13193;48.874;9.086;2022-10-30T00:36:21;12.30;1.00
290;DHT22;13193;48.874;9.086;2022-10-30T00:38:47;12.30;1.00
290;DHT22;13193;48.874;9.086;2022-10-30T00:41:18;12.40;1.00
290;DHT22;13193;48.874;9.086;2022-10-30T00:43:44;12.30;1.00
290;DHT22;13193;48.874;9.086;2022-10-30T00:49:12;12.40;1.00
290;DHT22;13193;48.874;9.086;2022-10-30T00:51:42;12.40;1.00
290;DHT22;13193;48.874;9.086;2022-10-30T00:54:11;12.80;1.00
290;DHT22;13193;48.874;9.086;2022-10-30T00:56:38;12.50;1.00
290;DHT22;13193;48.874;9.086;2022-10-30T00:59:08;12.50;1.00
290;DHT22;13193;48.874;9.086;2022-10-30T01:01:37;12.50;1.00
290;DHT22;13193;48.874;9.086;2022-10-30T01:04:04;12.50;1.00
290;DHT22;13193;48.874;9.086;2022-10-30T01:06:37;12.50;1.00
290;DHT22;13193;48.874;9.086;2022-10-30T01:09:04;12.50;1.00
290;DHT22;13193;48.874;9.086;2022-10-30T01:11:30;12.50;1.00
290;DHT22;13193;48.874;9.086;2022-10-30T01:14:03;12.50;1.00
290;DHT22;13193;48.874;9.086;2022-10-30T01:17:06;12.50;1.00
290;DHT22;13193;48.874;9.086;2022-10-30T01:19:43;12.50;1.00
290;DHT22;13193;48.874;9.086;2022-10-30T01:30:14;12.50;1.00
290;DHT22;13193;48.874;9.086;2022-10-30T01:32:57;12.40;1.00
290;DHT22;13193;48.874;9.086;2022-10-30T01:35:46;12.50;1.00
290;DHT22;13193;48.874;9.086;2022-10-30T01:38:23;12.50;1.00
290;DHT22;13193;48.874;9.086;2022-10-30T01:40:51;12.50;1.00
290;DHT22;13193;48.874;9.086;2022-10-30T01:43:17;12.70;1.00
290;DHT22;13193;48.874;9.086;2022-10-30T02:00:03;12.60;1.00
290;DHT22;13193;48.874;9.086;2022-10-30T02:02:31;12.70;1.00
290;DHT22;13193;48.874;9.086;2022-10-30T02:04:58;12.70;1.00
290;DHT22;13193;48.874;9.086;2022-10-30T02:07:24;12.80;1.00
290;DHT22;13193;48.874;9.086;2022-10-30T02:09:50;12.70;1.00
290;DHT22;13193;48.874;9.086;2022-10-30T02:12:17;12.70;1.00
290;DHT22;13193;48.874;9.086;2022-10-30T02:14:47;12.80;1.00
290;DHT22;13193;48.874;9.086;2022-10-30T02:17:17;12.70;1.00
290;DHT22;13193;48.874;9.086;2022-10-30T02:19:42;12.70;1.00
290;DHT22;13193;48.874;9.086;2022-10-30T02:22:09;12.70;1.00
290;DHT22;13193;48.874;9.086;2022-10-30T02:24:35;12.70;1.00
290;DHT22;13193;48.874;9.086;2022-10-30T02:27:00;12.70;1.00
290;DHT22;13193;48.874;9.086;2022-10-30T02:29:26;12.70;1.00
290;DHT22;13193;48.874;9.086;2022-10-30T02:31:52;12.60;1.00
290;DHT22;13193;48.874;9.086;2022-10-30T02:34:18;12.50;1.00
290;DHT22;13193;48.874;9.086;2022-10-30T02:36:44;12.50;1.00
290;DHT22;13193;48.874;9.086;2022-10-30T02:39:09;12.50;1.00
290;DHT22;13193;48.874;9.086;2022-10-30T02:41:35;12.50;1.00
290;DHT22;13193;48.874;9.086;2022-10-30T02:44:01;12.40;1.00
290;DHT22;13193;48.874;9.086;2022-10-30T02:46:27;12.40;1.00
290;DHT22;13193;48.874;9.086;2022-10-30T02:48:52;12.40;1.00
290;DHT22;13193;48.874;9.086;2022-10-30T02:51:20;12.40;1.00
290;DHT22;13193;48.874;9.086;2022-10-30T02:53:45;12.30;1.00
290;DHT22;13193;48.874;9.086;2022-10-30T02:56:14;12.30;1.00
290;DHT22;13193;48.874;9.086;2022-10-30T02:58:40;12.30;1.00
290;DHT22;13193;48.874;9.086;2022-10-30T03:01:11;12.20;1.00
290;DHT22;13193;48.874;9.086;2022-10-30T03:03:38;12.20;1.00
290;DHT22;13193;48.874;9.086;2022-10-30T03:06:06;12.20;1.00
290;DHT22;13193;48.874;9.086;2022-10-30T03:08:32;12.10;1.00
290;DHT22;13193;48.874;9.086;2022-10-30T03:11:04;12.10;1.00
290;DHT22;13193;48.874;9.086;2022-10-30T03:13:31;12.10;1.00
290;DHT22;13193;48.874;9.086;2022-10-30T03:16:05;12.20;1.00
290;DHT22;13193;48.874;9.086;2022-10-30T03:18:31;12.20;1.00
290;DHT22;13193;48.874;9.086;2022-10-30T03:20:58;12.20;1.00
290;DHT22;13193;48.874;9.086;2022-10-30T03:23:25;12.20;1.00
290;DHT22;13193;48.874;9.086;2022-10-30T03:25:55;12.20;1.00
290;DHT22;13193;48.874;9.086;2022-10-30T03:28:22;12.10;1.00
290;DHT22;13193;48.874;9.086;2022-10-30T03:30:49;12.00;1.00
290;DHT22;13193;48.874;9.086;2022-10-30T03:33:15;11.90;1.00
290;DHT22;13193;48.874;9.086;2022-10-30T03:35:45;12.00;1.00
290;DHT22;13193;48.874;9.086;2022-10-30T03:38:14;11.80;1.00
290;DHT22;13193;48.874;9.086;2022-10-30T03:40:40;11.70;1.00
290;DHT22;13193;48.874;9.086;2022-10-30T03:43:05;11.70;1.00
290;DHT22;13193;48.874;9.086;2022-10-30T03:45:32;11.60;1.00
290;DHT22;13193;48.874;9.086;2022-10-30T03:48:01;11.60;1.00
290;DHT22;13193;48.874;9.086;2022-10-30T03:50:27;11.60;1.00
290;DHT22;13193;48.874;9.086;2022-10-30T03:52:56;11.50;1.00
290;DHT22;13193;48.874;9.086;2022-10-30T03:55:23;11.40;1.00
290;DHT22;13193;48.874;9.086;2022-10-30T03:57:49;11.40;1.00
290;DHT22;13193;48.874;9.086;2022-10-30T04:00:15;11.40;1.00
290;DHT22;13193;48.874;9.086;2022-10-30T04:02:49;11.40;1.00
290;DHT22;13193;48.874;9.086;2022-10-30T04:05:16;11.30;1.00
290;DHT22;13193;48.874;9.086;2022-10-30T04:07:42;11.30;1.00
290;DHT22;13193;48.874;9.086;2022-10-30T04:10:08;11.20;1.00
290;DHT22;13193;48.874;9.086;2022-10-30T04:12:34;11.20;1.00
290;DHT22;13193;48.874;9.086;2022-10-30T04:15:00;11.40;1.00
290;DHT22;13193;48.874;9.086;2022-10-30T04:17:25;11.20;1.00
290;DHT22;13193;48.874;9.086;2022-10-30T04:19:51;11.10;1.00
290;DHT22;13193;48.874;9.086;2022-10-30T04:22:16;11.10;1.00
290;DHT22;13193;48.874;9.086;2022-10-30T04:24:42;11.10;1.00
290;DHT22;13193;48.874;9.086;2022-10-30T04:27:09;11.10;1.00
290;DHT22;13193;48.874;9.086;2022-10-30T04:29:34;11.10;1.00
290;DHT22;13193;48.874;9.086;2022-10-30T04:32:02;11.10;1.00
290;DHT22;13193;48.874;9.086;2022-10-30T04:34:27;11.40;1.00
290;DHT22;13193;48.874;9.086;2022-10-30T04:36:53;11.00;1.00
290;DHT22;13193;48.874;9.086;2022-10-30T04:39:19;11.00;1.00
290;DHT22;13193;48.874;9.086;2022-10-30T04:41:45;11.00;1.00
290;DHT22;13193;48.874;9.086;2022-10-30T04:44:10;10.90;1.00
290;DHT22;13193;48.874;9.086;2022-10-30T04:46:36;11.00;1.00
290;DHT22;13193;48.874;9.086;2022-10-30T04:49:02;11.00;1.00
290;DHT22;13193;48.874;9.086;2022-10-30T04:51:27;10.90;1.00
290;DHT22;13193;48.874;9.086;2022-10-30T04:53:53;10.90;1.00
290;DHT22;13193;48.874;9.086;2022-10-30T04:56:19;10.90;1.00
290;DHT22;13193;48.874;9.086;2022-10-30T04:58:45;10.80;1.00
290;DHT22;13193;48.874;9.086;2022-10-30T05:01:10;10.80;1.00
290;DHT22;13193;48.874;9.086;2022-10-30T05:03:36;10.90;1.00
290;DHT22;13193;48.874;9.086;2022-10-30T05:06:10;11.30;1.00
290;DHT22;13193;48.874;9.086;2022-10-30T05:08:37;10.70;1.00
290;DHT22;13193;48.874;9.086;2022-10-30T05:11:04;10.70;1.00
290;DHT22;13193;48.874;9.086;2022-10-30T05:13:30;10.70;1.00
290;DHT22;13193;48.874;9.086;2022-10-30T05:15:55;10.60;1.00
290;DHT22;13193;48.874;9.086;2022-10-30T05:18:21;10.60;1.00
290;DHT22;13193;48.874;9.086;2022-10-30T05:20:47;10.60;1.00
290;DHT22;13193;48.874;9.086;2022-10-30T05:23:12;10.60;1.00
290;DHT22;13193;48.874;9.086;2022-10-30T05:25:38;10.60;1.00
290;DHT22;13193;48.874;9.086;2022-10-30T05:28:05;10.60;1.00
290;DHT22;13193;48.874;9.086;2022-10-30T05:30:32;10.50;1.00
290;DHT22;13193;48.874;9.086;2022-10-30T05:33:05;10.50;1.00
290;DHT22;13193;48.874;9.086;2022-10-30T05:35:33;10.50;1.00
290;DHT22;13193;48.874;9.086;2022-10-30T05:37:59;10.40;1.00
290;DHT22;13193;48.874;9.086;2022-10-30T05:40:25;10.40;1.00
290;DHT22;13193;48.874;9.086;2022-10-30T05:42:51;10.30;1.00
290;DHT22;13193;48.874;9.086;2022-10-30T05:45:17;10.40;1.00
290;DHT22;13193;48.874;9.086;2022-10-30T05:47:43;10.40;1.00
290;DHT22;13193;48.874;9.086;2022-10-30T05:50:09;10.40;1.00
290;DHT22;13193;48.874;9.086;2022-10-30T05:52:36;10.40;1.00
290;DHT22;13193;48.874;9.086;2022-10-30T05:55:02;10.40;1.00
290;DHT22;13193;48.874;9.086;2022-10-30T05:57:29;10.40;1.00
290;DHT22;13193;48.874;9.086;2022-10-30T05:59:55;10.40;1.00
290;DHT22;13193;48.874;9.086;2022-10-30T06:02:21;10.40;1.00
290;DHT22;13193;48.874;9.086;2022-10-30T06:04:46;10.40;1.00
290;DHT22;13193;48.874;9.086;2022-10-30T06:07:12;10.40;1.00
290;DHT22;13193;48.874;9.086;2022-10-30T06:09:37;10.40;1.00
290;DHT22;13193;48.874;9.086;2022-10-30T06:12:03;10.50;1.00
290;DHT22;13193;48.874;9.086;2022-10-30T06:14:29;10.50;1.00
290;DHT22;13193;48.874;9.086;2022-10-30T06:16:54;10.60;1.00
290;DHT22;13193;48.874;9.086;2022-10-30T06:19:20;10.60;1.00
290;DHT22;13193;48.874;9.086;2022-10-30T06:21:46;10.60;1.00
290;DHT22;13193;48.874;9.086;2022-10-30T06:24:12;10.70;1.00
290;DHT22;13193;48.874;9.086;2022-10-30T06:26:38;10.60;1.00
290;DHT22;13193;48.874;9.086;2022-10-30T06:29:04;10.70;1.00
290;DHT22;13193;48.874;9.086;2022-10-30T06:31:29;10.80;1.00
290;DHT22;13193;48.874;9.086;2022-10-30T06:33:55;10.80;1.00
290;DHT22;13193;48.874;9.086;2022-10-30T06:36:21;10.80;1.00
290;DHT22;13193;48.874;9.086;2022-10-30T06:38:46;10.80;1.00
290;DHT22;13193;48.874;9.086;2022-10-30T06:41:14;10.70;1.00
290;DHT22;13193;48.874;9.086;2022-10-30T06:43:40;10.90;1.00
290;DHT22;13193;48.874;9.086;2022-10-30T06:46:07;11.00;1.00
290;DHT22;13193;48.874;9.086;2022-10-30T06:48:33;11.20;1.00
290;DHT22;13193;48.874;9.086;2022-10-30T06:50:59;11.10;1.00
290;DHT22;13193;48.874;9.086;2022-10-30T06:53:27;11.10;1.00
290;DHT22;13193;48.874;9.086;2022-10-30T06:55:57;11.20;1.00
290;DHT22;13193;48.874;9.086;2022-10-30T06:58:23;11.30;1.00
290;DHT22;13193;48.874;9.086;2022-10-30T07:00:49;11.40;1.00
290;DHT22;13193;48.874;9.086;2022-10-30T07:03:15;11.70;1.00
290;DHT22;13193;48.874;9.086;2022-10-30T07:05:41;11.60;1.00
290;DHT22;13193;48.874;9.086;2022-10-30T07:08:06;11.70;1.00
290;DHT22;13193;48.874;9.086;2022-10-30T07:10:32;11.80;1.00
290;DHT22;13193;48.874;9.086;2022-10-30T07:12:58;11.90;1.00
290;DHT22;13193;48.874;9.086;2022-10-30T07:15:24;12.00;1.00
290;DHT22;13193;48.874;9.086;2022-10-30T07:18:14;12.10;1.00
290;DHT22;13193;48.874;9.086;2022-10-30T07:20:39;12.20;1.00
290;DHT22;13193;48.874;9.086;2022-10-30T07:23:05;12.30;1.00
290;DHT22;13193;48.874;9.086;2022-10-30T07:25:30;12.40;1.00
290;DHT22;13193;48.874;9.086;2022-10-30T07:27:56;12.40;1.00
290;DHT22;13193;48.874;9.086;2022-10-30T07:30:24;12.50;1.00
290;DHT22;13193;48.874;9.086;2022-10-30T07:33:00;12.60;1.00
290;DHT22;13193;48.874;9.086;2022-10-30T07:35:27;12.70;1.00
290;DHT22;13193;48.874;9.086;2022-10-30T07:37:53;12.80;1.00
290;DHT22;13193;48.874;9.086;2022-10-30T07:40:19;13.10;1.00
290;DHT22;13193;48.874;9.086;2022-10-30T07:42:45;13.00;1.00
290;DHT22;13193;48.874;9.086;2022-10-30T07:45:10;13.00;1.00
290;DHT22;13193;48.874;9.086;2022-10-30T07:47:42;13.20;1.00
290;DHT22;13193;48.874;9.086;2022-10-30T07:50:09;13.20;1.00
290;DHT22;13193;48.874;9.086;2022-10-30T07:52:35;13.30;1.00
290;DHT22;13193;48.874;9.086;2022-10-30T07:55:01;13.30;1.00
290;DHT22;13193;48.874;9.086;2022-10-30T07:57:30;13.50;1.00
290;DHT22;13193;48.874;9.086;2022-10-30T07:59:59;13.60;1.00
290;DHT22;13193;48.874;9.086;2022-10-30T08:02:24;13.70;1.00
290;DHT22;13193;48.874;9.086;2022-10-30T08:04:50;13.80;1.00
290;DHT22;13193;48.874;9.086;2022-10-30T08:07:15;13.90;1.00
290;DHT22;13193;48.874;9.086;2022-10-30T08:09:41;14.00;1.00
290;DHT22;13193;48.874;9.086;2022-10-30T08:12:07;14.20;1.00
290;DHT22;13193;48.874;9.086;2022-10-30T08:14:32;14.30;1.00
290;DHT22;13193;48.874;9.086;2022-10-30T08:16:59;14.40;1.00
290;DHT22;13193;48.874;9.086;2022-10-30T08:19:25;14.40;1.00
290;DHT22;13193;48.874;9.086;2022-10-30T08:21:51;14.60;1.00
290;DHT22;13193;48.874;9.086;2022-10-30T08:24:17;14.70;1.00
290;DHT22;13193;48.874;9.086;2022-10-30T08:26:42;14.80;1.00
290;DHT22;13193;48.874;9.086;2022-10-30T08:29:10;14.90;1.00
290;DHT22;13193;48.874;9.086;2022-10-30T08:31:36;15.10;1.00
290;DHT22;13193;48.874;9.086;2022-10-30T08:34:02;15.10;1.00
290;DHT22;13193;48.874;9.086;2022-10-30T08:36:27;15.20;1.00
290;DHT22;13193;48.874;9.086;2022-10-30T08:38:53;15.40;1.00
290;DHT22;13193;48.874;9.086;2022-10-30T08:41:18;15.30;1.00
290;DHT22;13193;48.874;9.086;2022-10-30T08:43:44;15.40;1.00
290;DHT22;13193;48.874;9.086;2022-10-30T08:46:09;15.50;1.00
290;DHT22;13193;48.874;9.086;2022-10-30T08:48:35;15.60;1.00
290;DHT22;13193;48.874;9.086;2022-10-30T08:51:03;15.70;1.00
290;DHT22;13193;48.874;9.086;2022-10-30T08:53:33;15.80;1.00
290;DHT22;13193;48.874;9.086;2022-10-30T08:55:59;15.90;1.00
290;DHT22;13193;48.874;9.086;2022-10-30T08:58:24;15.90;1.00
290;DHT22;13193;48.874;9.086;2022-10-30T09:00:50;16.00;1.00
290;DHT22;13193;48.874;9.086;2022-10-30T09:03:16;16.00;1.00
290;DHT22;13193;48.874;9.086;2022-10-30T09:05:41;16.10;1.00
290;DHT22;13193;48.874;9.086;2022-10-30T09:08:07;16.20;1.00
290;DHT22;13193;48.874;9.086;2022-10-30T09:10:32;16.30;1.00
290;DHT22;13193;48.874;9.086;2022-10-30T09:12:59;16.40;1.00
290;DHT22;13193;48.874;9.086;2022-10-30T09:15:29;16.50;1.00
290;DHT22;13193;48.874;9.086;2022-10-30T09:18:04;16.60;1.00
290;DHT22;13193;48.874;9.086;2022-10-30T09:20:30;16.70;1.00
290;DHT22;13193;48.874;9.086;2022-10-30T09:22:56;16.80;1.00
290;DHT22;13193;48.874;9.086;2022-10-30T09:25:21;16.90;1.00
290;DHT22;13193;48.874;9.086;2022-10-30T09:27:47;17.00;1.00
290;DHT22;13193;48.874;9.086;2022-10-30T09:30:13;17.10;1.00
290;DHT22;13193;48.874;9.086;2022-10-30T09:32:39;17.20;1.00
290;DHT22;13193;48.874;9.086;2022-10-30T09:35:05;17.30;1.00
290;DHT22;13193;48.874;9.086;2022-10-30T09:37:38;17.40;1.00
290;DHT22;13193;48.874;9.086;2022-10-30T09:40:04;17.50;1.00
290;DHT22;13193;48.874;9.086;2022-10-30T09:42:39;17.60;1.00
290;DHT22;13193;48.874;9.086;2022-10-30T09:53:52;18.20;1.00
290;DHT22;13193;48.874;9.086;2022-10-30T10:02:13;18.40;1.00
290;DHT22;13193;48.874;9.086;2022-10-30T10:04:55;18.50;1.00
290;DHT22;13193;48.874;9.086;2022-10-30T10:07:51;18.60;1.00
290;DHT22;13193;48.874;9.086;2022-10-30T10:12:54;18.70;1.00
290;DHT22;13193;48.874;9.086;2022-10-30T10:15:33;18.80;1.00
290;DHT22;13193;48.874;9.086;2022-10-30T10:18:13;18.90;1.00
290;DHT22;13193;48.874;9.086;2022-10-30T10:20:42;19.00;1.00
290;DHT22;13193;48.874;9.086;2022-10-30T10:23:26;19.00;1.00
290;DHT22;13193;48.874;9.086;2022-10-30T10:25:57;19.10;1.00
290;DHT22;13193;48.874;9.086;2022-10-30T10:31:27;19.30;1.00
290;DHT22;13193;48.874;9.086;2022-10-30T10:39:38;19.50;1.00
290;DHT22;13193;48.874;9.086;2022-10-30T10:42:28;19.50;1.00
290;DHT22;13193;48.874;9.086;2022-10-30T10:48:19;19.70;1.00
290;DHT22;13193;48.874;9.086;2022-10-30T10:51:01;19.80;1.00
290;DHT22;13193;48.874;9.086;2022-10-30T10:53:58;19.90;1.00
290;DHT22;13193;48.874;9.086;2022-10-30T10:56:35;20.00;1.00
290;DHT22;13193;48.874;9.086;2022-10-30T10:59:04;20.10;1.00
290;DHT22;13193;48.874;9.086;2022-10-30T11:01:38;20.20;1.00
290;DHT22;13193;48.874;9.086;2022-10-30T11:04:13;20.30;1.00
290;DHT22;13193;48.874;9.086;2022-10-30T11:06:49;20.40;1.00
290;DHT22;13193;48.874;9.086;2022-10-30T11:09:18;20.60;1.00
290;DHT22;13193;48.874;9.086;2022-10-30T11:11:46;20.60;1.00
290;DHT22;13193;48.874;9.086;2022-10-30T11:14:20;20.70;1.00
290;DHT22;13193;48.874;9.086;2022-10-30T11:17:09;20.60;1.00
290;DHT22;13193;48.874;9.086;2022-10-30T11:19:37;20.90;1.00
290;DHT22;13193;48.874;9.086;2022-10-30T11:22:36;21.00;1.00
290;DHT22;13193;48.874;9.086;2022-10-30T11:25:23;21.10;1.00
290;DHT22;13193;48.874;9.086;2022-10-30T11:27:56;21.20;1.00
290;DHT22;13193;48.874;9.086;2022-10-30T11:30:25;21.20;1.00
290;DHT22;13193;48.874;9.086;2022-10-30T11:32:53;21.30;1.00
290;DHT22;13193;48.874;9.086;2022-10-30T11:35:20;21.40;1.00
290;DHT22;13193;48.874;9.086;2022-10-30T11:37:50;21.40;1.00
290;DHT22;13193;48.874;9.086;2022-10-30T11:40:19;21.40;1.00
290;DHT22;13193;48.874;9.086;2022-10-30T11:42:49;21.40;1.00
290;DHT22;13193;48.874;9.086;2022-10-30T11:45:26;21.50;1.00
290;DHT22;13193;48.874;9.086;2022-10-30T11:47:54;21.50;1.00
290;DHT22;13193;48.874;9.086;2022-10-30T11:50:46;21.60;1.00
290;DHT22;13193;48.874;9.086;2022-10-30T11:53:24;21.70;1.00
290;DHT22;13193;48.874;9.086;2022-10-30T11:55:56;21.80;1.00
290;DHT22;13193;48.874;9.086;2022-10-30T11:58:45;21.80;1.00
290;DHT22;13193;48.874;9.086;2022-10-30T12:01:23;21.90;1.00
290;DHT22;13193;48.874;9.086;2022-10-30T12:03:49;22.00;1.00
290;DHT22;13193;48.874;9.086;2022-10-30T12:09:12;21.80;1.00
290;DHT22;13193;48.874;9.086;2022-10-30T12:11:40;22.10;1.00
290;DHT22;13193;48.874;9.086;2022-10-30T12:14:20;22.10;1.00
290;DHT22;13193;48.874;9.086;2022-10-30T12:16:47;22.20;1.00
290;DHT22;13193;48.874;9.086;2022-10-30T12:19:14;22.20;1.00
290;DHT22;13193;48.874;9.086;2022-10-30T12:21:51;22.30;1.00
290;DHT22;13193;48.874;9.086;2022-10-30T12:26:51;22.40;1.00
290;DHT22;13193;48.874;9.086;2022-10-30T12:29:21;22.40;1.00
290;DHT22;13193;48.874;9.086;2022-10-30T12:32:01;22.40;1.00
290;DHT22;13193;48.874;9.086;2022-10-30T12:34:43;22.50;1.00
290;DHT22;13193;48.874;9.086;2022-10-30T12:37:26;22.50;1.00
290;DHT22;13193;48.874;9.086;2022-10-30T12:40:15;22.60;1.00
290;DHT22;13193;48.874;9.086;2022-10-30T12:42:50;22.60;1.00
290;DHT22;13193;48.874;9.086;2022-10-30T12:45:33;22.60;1.00
290;DHT22;13193;48.874;9.086;2022-10-30T12:48:10;22.60;1.00
290;DHT22;13193;48.874;9.086;2022-10-30T12:50:45;22.60;1.00
290;DHT22;13193;48.874;9.086;2022-10-30T12:53:28;22.60;1.00
290;DHT22;13193;48.874;9.086;2022-10-30T12:56:09;22.60;1.00
290;DHT22;13193;48.874;9.086;2022-10-30T12:58:52;22.70;1.00
290;DHT22;13193;48.874;9.086;2022-10-30T13:01:36;22.80;1.00
290;DHT22;13193;48.874;9.086;2022-10-30T13:07:08;22.90;1.00
290;DHT22;13193;48.874;9.086;2022-10-30T13:10:29;23.00;1.00
290;DHT22;13193;48.874;9.086;2022-10-30T13:12:36;23.00;1.00
290;DHT22;13193;48.874;9.086;2022-10-30T13:17:46;22.90;1.00
290;DHT22;13193;48.874;9.086;2022-10-30T13:20:17;22.80;1.00
290;DHT22;13193;48.874;9.086;2022-10-30T13:23:02;22.80;1.00
290;DHT22;13193;48.874;9.086;2022-10-30T13:28:30;22.90;1.00
290;DHT22;13193;48.874;9.086;2022-10-30T13:34:36;23.00;1.00
290;DHT22;13193;48.874;9.086;2022-10-30T13:37:14;23.10;1.00
290;DHT22;13193;48.874;9.086;2022-10-30T13:53:35;23.10;1.00
290;DHT22;13193;48.874;9.086;2022-10-30T13:56:02;23.10;1.00
290;DHT22;13193;48.874;9.086;2022-10-30T13:58:37;23.10;1.00
290;DHT22;13193;48.874;9.086;2022-10-30T14:04:04;23.10;1.00
290;DHT22;13193;48.874;9.086;2022-10-30T14:12:49;22.90;1.00
290;DHT22;13193;48.874;9.086;2022-10-30T14:20:48;22.80;1.00
290;DHT22;13193;48.874;9.086;2022-10-30T14:28:36;22.60;1.00
290;DHT22;13193;48.874;9.086;2022-10-30T14:38:50;22.40;1.00
290;DHT22;13193;48.874;9.086;2022-10-30T14:45:52;22.10;1.00
290;DHT22;13193;48.874;9.086;2022-10-30T14:55:17;21.80;1.00
290;DHT22;13193;48.874;9.086;2022-10-30T14:57:51;21.70;1.00
290;DHT22;13193;48.874;9.086;2022-10-30T15:03:31;21.50;1.00
290;DHT22;13193;48.874;9.086;2022-10-30T15:06:12;21.40;1.00
290;DHT22;13193;48.874;9.086;2022-10-30T15:09:04;21.40;1.00
290;DHT22;13193;48.874;9.086;2022-10-30T15:18:03;21.10;1.00
290;DHT22;13193;48.874;9.086;2022-10-30T15:20:41;20.90;1.00
290;DHT22;13193;48.874;9.086;2022-10-30T15:23:14;20.80;1.00
290;DHT22;13193;48.874;9.086;2022-10-30T15:25:54;20.70;1.00
290;DHT22;13193;48.874;9.086;2022-10-30T15:28:30;20.60;1.00
290;DHT22;13193;48.874;9.086;2022-10-30T15:33:26;20.30;1.00
290;DHT22;13193;48.874;9.086;2022-10-30T15:35:52;20.20;1.00
290;DHT22;13193;48.874;9.086;2022-10-30T15:38:18;20.00;1.00
290;DHT22;13193;48.874;9.086;2022-10-30T15:40:44;19.90;1.00
290;DHT22;13193;48.874;9.086;2022-10-30T15:43:12;19.80;1.00
290;DHT22;13193;48.874;9.086;2022-10-30T15:45:41;19.70;1.00
290;DHT22;13193;48.874;9.086;2022-10-30T15:48:22;19.60;1.00
290;DHT22;13193;48.874;9.086;2022-10-30T15:53:44;19.30;1.00
290;DHT22;13193;48.874;9.086;2022-10-30T15:56:35;19.20;1.00
290;DHT22;13193;48.874;9.086;2022-10-30T15:59:05;19.00;1.00
290;DHT22;13193;48.874;9.086;2022-10-30T16:03:58;18.70;1.00
290;DHT22;13193;48.874;9.086;2022-10-30T16:06:29;18.50;1.00
290;DHT22;13193;48.874;9.086;2022-10-30T16:08:56;18.40;1.00
290;DHT22;13193;48.874;9.086;2022-10-30T16:11:22;18.30;1.00
290;DHT22;13193;48.874;9.086;2022-10-30T16:13:49;18.20;1.00
290;DHT22;13193;48.874;9.086;2022-10-30T16:16:29;18.00;1.00
290;DHT22;13193;48.874;9.086;2022-10-30T16:18:58;17.90;1.00
290;DHT22;13193;48.874;9.086;2022-10-30T16:21:25;17.70;1.00
290;DHT22;13193;48.874;9.086;2022-10-30T16:23:59;17.60;1.00
290;DHT22;13193;48.874;9.086;2022-10-30T16:26:35;17.40;1.00
290;DHT22;13193;48.874;9.086;2022-10-30T16:31:38;17.10;1.00
290;DHT22;13193;48.874;9.086;2022-10-30T16:34:14;17.00;1.00
290;DHT22;13193;48.874;9.086;2022-10-30T16:36:43;16.80;1.00
290;DHT22;13193;48.874;9.086;2022-10-30T16:39:13;16.70;1.00
290;DHT22;13193;48.874;9.086;2022-10-30T16:41:42;16.50;1.00
290;DHT22;13193;48.874;9.086;2022-10-30T16:44:28;16.40;1.00
290;DHT22;13193;48.874;9.086;2022-10-30T16:47:19;16.30;1.00
290;DHT22;13193;48.874;9.086;2022-10-30T16:49:52;16.10;1.00
290;DHT22;13193;48.874;9.086;2022-10-30T16:52:22;16.00;1.00
290;DHT22;13193;48.874;9.086;2022-10-30T16:54:59;15.90;1.00
290;DHT22;13193;48.874;9.086;2022-10-30T16:57:31;15.80;1.00
290;DHT22;13193;48.874;9.086;2022-10-30T16:59:59;15.70;1.00
290;DHT22;13193;48.874;9.086;2022-10-30T17:02:30;15.60;1.00
290;DHT22;13193;48.874;9.086;2022-10-30T17:05:29;15.50;1.00
290;DHT22;13193;48.874;9.086;2022-10-30T17:10:55;15.40;1.00
290;DHT22;13193;48.874;9.086;2022-10-30T17:16:27;15.20;1.00
290;DHT22;13193;48.874;9.086;2022-10-30T17:18:55;15.10;1.00
290;DHT22;13193;48.874;9.086;2022-10-30T17:23:57;14.90;1.00
290;DHT22;13193;48.874;9.086;2022-10-30T17:26:25;14.90;1.00
290;DHT22;13193;48.874;9.086;2022-10-30T17:28:52;14.80;1.00
290;DHT22;13193;48.874;9.086;2022-10-30T17:31:22;14.70;1.00
290;DHT22;13193;48.874;9.086;2022-10-30T17:34:18;14.60;1.00
290;DHT22;13193;48.874;9.086;2022-10-30T17:36:45;14.60;1.00
290;DHT22;13193;48.874;9.086;2022-10-30T17:39:10;14.50;1.00
290;DHT22;13193;48.874;9.086;2022-10-30T17:41:37;14.50;1.00
290;DHT22;13193;48.874;9.086;2022-10-30T17:44:03;14.50;1.00
290;DHT22;13193;48.874;9.086;2022-10-30T17:46:29;14.60;1.00
290;DHT22;13193;48.874;9.086;2022-10-30T17:48:57;14.60;1.00
290;DHT22;13193;48.874;9.086;2022-10-30T17:51:23;14.50;1.00
290;DHT22;13193;48.874;9.086;2022-10-30T17:53:49;14.50;1.00
290;DHT22;13193;48.874;9.086;2022-10-30T17:56:20;14.40;1.00
290;DHT22;13193;48.874;9.086;2022-10-30T17:58:47;14.30;1.00
290;DHT22;13193;48.874;9.086;2022-10-30T18:01:15;14.20;1.00
290;DHT22;13193;48.874;9.086;2022-10-30T18:03:42;14.20;1.00
290;DHT22;13193;48.874;9.086;2022-10-30T18:06:14;14.10;1.00
290;DHT22;13193;48.874;9.086;2022-10-30T18:08:40;14.10;1.00
290;DHT22;13193;48.874;9.086;2022-10-30T18:11:12;14.00;1.00
290;DHT22;13193;48.874;9.086;2022-10-30T18:13:38;14.00;1.00
290;DHT22;13193;48.874;9.086;2022-10-30T18:16:04;13.90;1.00
290;DHT22;13193;48.874;9.086;2022-10-30T18:18:30;13.90;1.00
290;DHT22;13193;48.874;9.086;2022-10-30T18:20:56;13.80;1.00
290;DHT22;13193;48.874;9.086;2022-10-30T18:23:23;13.80;1.00
290;DHT22;13193;48.874;9.086;2022-10-30T18:25:49;13.70;1.00
290;DHT22;13193;48.874;9.086;2022-10-30T18:28:16;13.70;1.00
290;DHT22;13193;48.874;9.086;2022-10-30T18:30:46;13.60;1.00
290;DHT22;13193;48.874;9.086;2022-10-30T18:33:13;13.60;1.00
290;DHT22;13193;48.874;9.086;2022-10-30T18:35:39;13.60;1.00
290;DHT22;13193;48.874;9.086;2022-10-30T18:38:05;13.50;1.00
290;DHT22;13193;48.874;9.086;2022-10-30T18:40:31;13.40;1.00
290;DHT22;13193;48.874;9.086;2022-10-30T18:42:57;13.40;1.00
290;DHT22;13193;48.874;9.086;2022-10-30T18:45:28;13.40;1.00
290;DHT22;13193;48.874;9.086;2022-10-30T18:47:55;13.40;1.00
290;DHT22;13193;48.874;9.086;2022-10-30T18:50:23;13.30;1.00
290;DHT22;13193;48.874;9.086;2022-10-30T18:52:49;13.40;1.00
290;DHT22;13193;48.874;9.086;2022-10-30T18:55:16;13.40;1.00
290;DHT22;13193;48.874;9.086;2022-10-30T18:57:43;13.30;1.00
290;DHT22;13193;48.874;9.086;2022-10-30T19:00:10;13.30;1.00
290;DHT22;13193;48.874;9.086;2022-10-30T19:02:36;13.30;1.00
290;DHT22;13193;48.874;9.086;2022-10-30T19:07:48;13.20;1.00
290;DHT22;13193;48.874;9.086;2022-10-30T19:10:14;13.20;1.00